Portada
METAR-TAF:

METAR-TAF

Aeroports :

Rajahmundry, Índia

latitud: 17-06-37N, longitud: 81-49-06E, altitud: 46 m

Observació

L'informe es va fer fa 33 minuts, a les 15:00 UTC
Vent 9 kt del Est
Temperatura 27°C
Humitat 66%
Pressió 1017 hPa
Visibilitat: 6000 m
Escasses núvols a una alçada de 2000 ft

METAR: VORY 201500Z 10009KT 6000 FEW020 27/20 Q1017 NOSIG

Hora: 21:03 (15:33 UTC)

Pronòstic

L'informe es va fer fa 4 hores i 33 minuts, a les 11:00 UTC
Pronòstic vàlid del 20 a les 12 UTC al 20 a les 21 UTC
Vent 7 kt del Oest/Nord-Oest
Visibilitat: 6000 m
Escasses núvols a una alçada de 2500 ft
Temporalment
l' 20 a les 15 UTC al 20 a les 18 UTC
Vent 5 kt del Nord/Nord-Est
Visibilitat: 3000 m
Escasses núvols a una alçada de 2000 ft
calitja, boirina

TAF: VORY 201100Z 2012/2021 29007KT 6000 FEW025 TEMPO 2015/2018 03005KT 3000 HZ BR FEW020

Observacions i pronòstics meteorològics de més de 4000 aeroports (METAR i TAF).

Les estacions disponibles són els punts grocs i vermells al mapa.

Posi el ratolí al punt desitjat per veure el nom de l'estació.

Feu clic per veure les observacions i els pronòstics meteorològics.

Per canviar el mapa: feu clic els botons verds amb una creu de color negre per apropar; al botó verd amb un guió per allunyar la imatge; o en les fletxes verdes per a mapes adjacents.


METAR-TAF: